Time;durP1;ratioP1;P1;durP2;ratioP2;P2;SDS_P1;SDS_P2;PMS_P1;PMS_P2;Temp;Humidity;BMP_temperature;BMP_pressure;BME280_temperature;BME280_humidity;BME280_pressure;Samples;Min_cycle;Max_cycle;Signal;HPM_P1;HPM_P2
2023/07/09 00:00:29;;;;;;;0.10;0.10;;;;;;;23.98;100.00;99254.78;4977163;28;20270;-81
2023/07/09 00:03:17;;;;;;;0.10;0.10;;;;;;;24.10;100.00;99254.34;4914743;29;20281;-81
2023/07/09 00:05:49;;;;;;;0.10;0.10;;;;;;;24.14;100.00;99255.69;4918502;29;20217;-81
2023/07/09 00:08:27;;;;;;;0.10;0.10;;;;;;;23.85;100.00;99268.09;4950133;28;20326;-79
2023/07/09 00:10:56;;;;;;;0.10;0.10;;;;;;;23.98;100.00;99271.03;4996301;28;20195;-81
2023/07/09 00:13:27;;;;;;;0.10;0.10;;;;;;;23.97;100.00;99273.94;5016784;28;20695;-81
2023/07/09 00:15:59;;;;;;;0.10;0.10;;;;;;;24.02;100.00;99273.38;5051258;28;20195;-81
2023/07/09 00:18:30;;;;;;;0.10;0.10;;;;;;;24.15;98.99;99262.78;5054914;28;20203;-81
2023/07/09 00:20:59;;;;;;;0.03;0.03;;;;;;;24.12;99.18;99276.66;5047856;28;20211;-81
2023/07/09 00:23:29;;;;;;;0.10;0.10;;;;;;;24.15;100.00;99281.72;4993395;28;20276;-80
2023/07/09 00:25:58;;;;;;;0.10;0.10;;;;;;;24.20;98.62;99282.00;5047705;28;20200;-81
2023/07/09 00:28:30;;;;;;;0.10;0.10;;;;;;;24.11;100.00;99285.81;5100128;28;20187;-80
2023/07/09 00:31:02;;;;;;;0.10;0.10;;;;;;;23.73;100.00;99277.63;5090592;28;20227;-79
2023/07/09 00:33:35;;;;;;;0.00;0.00;;;;;;;23.68;100.00;99282.75;5087304;28;20221;-80
2023/07/09 00:36:15;;;;;;;0.10;0.10;;;;;;;23.45;100.00;99280.00;5088313;28;20255;-81
2023/07/09 00:38:47;;;;;;;0.10;0.10;;;;;;;23.25;100.00;99284.13;5031365;28;20260;-80
2023/07/09 00:41:19;;;;;;;0.05;0.05;;;;;;;23.49;100.00;99286.72;5032569;28;20229;-80
2023/07/09 00:43:49;;;;;;;0.10;0.10;;;;;;;23.33;100.00;99284.94;5031209;28;20244;-80
2023/07/09 00:46:54;;;;;;;0.10;0.10;;;;;;;23.31;100.00;99278.03;4979480;28;20217;-80
2023/07/09 00:49:33;;;;;;;0.10;0.10;;;;;;;23.47;100.00;99287.94;5032708;28;20264;-82
2023/07/09 00:52:11;;;;;;;0.10;0.10;;;;;;;23.26;100.00;99278.59;5076012;28;20305;-80
2023/07/09 00:54:46;;;;;;;0.10;0.10;;;;;;;23.05;100.00;99292.66;5071088;28;20184;-81
2023/07/09 00:57:19;;;;;;;0.10;0.10;;;;;;;22.63;100.00;99292.09;5069901;28;20196;-80
2023/07/09 00:59:51;;;;;;;0.10;0.10;;;;;;;22.82;100.00;99287.16;5072358;28;20286;-81
2023/07/09 01:02:23;;;;;;;0.10;0.10;;;;;;;23.03;100.00;99292.00;5067518;28;20749;-80
2023/07/09 01:04:56;;;;;;;0.10;0.10;;;;;;;23.14;100.00;99293.47;5073768;28;20192;-80
2023/07/09 01:07:32;;;;;;;0.10;0.10;;;;;;;23.08;100.00;99297.75;5067656;28;20366;-80
2023/07/09 01:10:01;;;;;;;0.00;0.00;;;;;;;23.22;100.00;99281.78;5014887;28;20230;-79
2023/07/09 01:12:34;;;;;;;0.10;0.10;;;;;;;23.31;100.00;99287.00;5010760;28;20195;-81
2023/07/09 01:15:03;;;;;;;0.10;0.10;;;;;;;23.14;100.00;99293.47;5014859;28;20186;-81
2023/07/09 01:17:32;;;;;;;0.10;0.10;;;;;;;23.11;100.00;99289.28;5070848;28;20301;-81
2023/07/09 01:20:04;;;;;;;0.10;0.10;;;;;;;23.10;100.00;99286.75;5014121;28;20748;-82
2023/07/09 01:22:36;;;;;;;0.08;0.08;;;;;;;22.92;100.00;99288.84;5025569;28;20266;-80
2023/07/09 01:25:09;;;;;;;0.10;0.10;;;;;;;22.89;100.00;99287.34;5022531;28;20206;-81
2023/07/09 01:27:43;;;;;;;0.10;0.10;;;;;;;22.71;100.00;99298.31;5014809;28;20816;-81
2023/07/09 01:30:22;;;;;;;0.10;0.10;;;;;;;22.75;100.00;99294.25;5011418;28;20760;-81
2023/07/09 01:32:52;;;;;;;0.10;0.10;;;;;;;22.58;100.00;99295.28;5010559;28;20206;-81
2023/07/09 01:35:22;;;;;;;0.10;0.10;;;;;;;22.35;100.00;99294.31;5054182;28;20184;-81
2023/07/09 01:37:59;;;;;;;0.10;0.10;;;;;;;22.33;100.00;99296.38;5077968;28;20197;-81
2023/07/09 01:40:30;;;;;;;0.10;0.10;;;;;;;22.41;100.00;99297.19;5117901;27;20214;-81
2023/07/09 01:43:06;;;;;;;0.10;0.10;;;;;;;22.41;100.00;99301.75;5112298;28;20199;-81
2023/07/09 01:45:36;;;;;;;0.10;0.10;;;;;;;21.62;100.00;99304.03;5073038;28;20205;-80
2023/07/09 01:48:15;;;;;;;0.10;0.10;;;;;;;21.61;100.00;99310.41;5111475;28;20207;-81
2023/07/09 01:50:45;;;;;;;0.10;0.10;;;;;;;21.84;100.00;99299.03;5114338;28;20199;-81
2023/07/09 01:53:25;;;;;;;0.10;0.10;;;;;;;21.80;100.00;99298.50;5113034;28;20186;-81
2023/07/09 01:55:55;;;;;;;0.10;0.10;;;;;;;21.95;100.00;99296.84;5112477;28;20206;-81
2023/07/09 01:58:25;;;;;;;0.10;0.10;;;;;;;21.93;100.00;99301.56;5108262;28;20226;-80
2023/07/09 02:00:56;;;;;;;0.10;0.10;;;;;;;22.18;100.00;99299.72;5074460;28;20302;-81
2023/07/09 02:03:27;;;;;;;0.10;0.10;;;;;;;22.25;100.00;99308.84;5029362;28;20221;-80
2023/07/09 02:05:57;;;;;;;0.10;0.10;;;;;;;22.27;100.00;99309.50;5024607;28;20205;-81
2023/07/09 02:08:32;;;;;;;0.10;0.10;;;;;;;22.26;100.00;99312.38;4949291;28;20710;-81
2023/07/09 02:11:01;;;;;;;0.10;0.10;;;;;;;;;;4905508;29;20302;-81
2023/07/09 02:13:29;;;;;;;0.10;0.10;;;;;;;22.23;100.00;99310.03;4947502;28;20207;-81
2023/07/09 02:16:00;;;;;;;0.10;0.10;;;;;;;22.32;100.00;99311.72;4946570;28;20204;-80
2023/07/09 02:18:29;;;;;;;0.10;0.10;;;;;;;22.22;100.00;99317.28;4948472;29;20279;-80
2023/07/09 02:21:00;;;;;;;0.03;0.03;;;;;;;22.16;100.00;99307.16;4945952;28;20212;-80
2023/07/09 02:23:30;;;;;;;0.10;0.10;;;;;;;22.19;100.00;99317.59;4946045;28;20219;-80
2023/07/09 02:26:01;;;;;;;0.10;0.10;;;;;;;22.09;100.00;99308.84;4970810;28;20688;-80
2023/07/09 02:28:30;;;;;;;0.10;0.10;;;;;;;22.05;100.00;99310.16;5083357;28;20187;-80
2023/07/09 02:30:59;;;;;;;0.10;0.10;;;;;;;22.00;100.00;99313.38;5060119;28;20375;-80
2023/07/09 02:33:27;;;;;;;0.10;0.10;;;;;;;21.91;100.00;99308.97;5107179;28;20272;-80
2023/07/09 02:35:57;;;;;;;0.10;0.10;;;;;;;21.67;100.00;99311.63;5111866;28;20203;-80
2023/07/09 02:38:25;;;;;;;0.10;0.10;;;;;;;21.26;100.00;99319.59;5112390;28;20663;-80
2023/07/09 02:40:54;;;;;;;0.10;0.10;;;;;;;21.35;100.00;99315.06;5112871;28;20264;-80
2023/07/09 02:43:25;;;;;;;0.10;0.10;;;;;;;21.38;100.00;99310.19;5110860;28;20225;-80
2023/07/09 02:45:54;;;;;;;0.10;0.10;;;;;;;21.20;100.00;99322.88;5110007;28;20183;-80
2023/07/09 02:48:25;;;;;;;0.10;0.10;;;;;;;20.94;100.00;99314.88;5108732;28;20282;-80
2023/07/09 02:50:59;;;;;;;0.10;0.10;;;;;;;21.00;100.00;99322.28;5029796;28;20202;-80
2023/07/09 02:53:28;;;;;;;0.10;0.10;;;;;;;20.89;100.00;99317.19;4922556;28;20195;-80
2023/07/09 02:55:58;;;;;;;0.10;0.10;;;;;;;20.91;100.00;99317.03;4968852;28;20227;-80
2023/07/09 02:58:29;;;;;;;0.10;0.10;;;;;;;20.88;100.00;99320.06;4968904;28;20195;-80
2023/07/09 03:00:57;;;;;;;0.10;0.10;;;;;;;20.81;100.00;99315.28;4966273;28;20282;-80
2023/07/09 03:03:28;;;;;;;0.10;0.10;;;;;;;20.79;100.00;99327.22;4968906;28;20225;-80
2023/07/09 03:05:58;;;;;;;0.10;0.10;;;;;;;20.61;100.00;99331.81;4968667;28;20287;-81
2023/07/09 03:08:33;;;;;;;0.10;0.10;;;;;;;20.54;100.00;99329.75;4899753;28;20195;-80
2023/07/09 03:11:10;;;;;;;0.10;0.10;;;;;;;20.69;100.00;99331.88;4965506;28;20242;-80
2023/07/09 03:13:44;;;;;;;0.10;0.10;;;;;;;20.67;100.00;99336.59;4967202;28;20215;-80
2023/07/09 03:16:14;;;;;;;0.10;0.10;;;;;;;21.04;100.00;99341.69;4966532;28;20188;-80
2023/07/09 03:18:47;;;;;;;0.10;0.10;;;;;;;20.90;100.00;99339.56;5002542;28;20194;-80
2023/07/09 03:21:16;;;;;;;0.10;0.10;;;;;;;21.02;100.00;99347.22;5016830;28;20240;-81
2023/07/09 03:23:47;;;;;;;0.10;0.10;;;;;;;21.12;100.00;99350.63;5006628;28;20205;-79
2023/07/09 03:26:20;;;;;;;0.10;0.10;;;;;;;21.22;100.00;99355.06;5030101;28;20185;-80
2023/07/09 03:28:57;;;;;;;0.10;0.10;;;;;;;21.09;100.00;99356.34;5055320;28;20197;-81
2023/07/09 03:31:26;;;;;;;0.10;0.10;;;;;;;20.83;100.00;99355.50;4994685;28;20227;-79
2023/07/09 03:33:57;;;;;;;0.08;0.08;;;;;;;20.92;100.00;99354.56;5042812;28;20205;-81
2023/07/09 03:36:27;;;;;;;0.10;0.10;;;;;;;20.97;100.00;99354.94;5051994;28;20252;-81
2023/07/09 03:38:56;;;;;;;0.10;0.10;;;;;;;21.00;100.00;99353.78;5046644;28;20290;-80
2023/07/09 03:41:28;;;;;;;0.10;0.10;;;;;;;21.13;100.00;99355.03;5057730;28;20215;-81
2023/07/09 03:43:58;;;;;;;0.10;0.10;;;;;;;21.26;100.00;99351.94;5055836;28;20278;-80
2023/07/09 03:46:32;;;;;;;0.10;0.10;;;;;;;21.23;100.00;99352.22;5078121;27;20198;-80
2023/07/09 03:49:02;;;;;;;0.10;0.10;;;;;;;21.11;100.00;99353.50;5137652;27;20290;-79
2023/07/09 03:51:33;;;;;;;0.10;0.10;;;;;;;21.29;100.00;99367.75;5139790;27;20196;-80
2023/07/09 03:54:07;;;;;;;0.10;0.10;;;;;;;20.98;100.00;99361.19;5134241;27;20201;-81
2023/07/09 03:56:38;;;;;;;0.10;0.10;;;;;;;20.86;100.00;99366.84;5099882;27;20201;-81
2023/07/09 03:59:07;;;;;;;0.10;0.10;;;;;;;20.64;100.00;99364.66;5118478;27;20199;-80
2023/07/09 04:01:36;;;;;;;0.10;0.10;;;;;;;20.79;100.00;99367.63;5115425;27;20219;-80
2023/07/09 04:04:06;;;;;;;0.10;0.10;;;;;;;20.79;100.00;99364.94;5113584;28;20199;-80
2023/07/09 04:06:35;;;;;;;0.10;0.10;;;;;;;20.67;100.00;99374.28;5116510;28;20274;-80
2023/07/09 04:09:07;;;;;;;0.10;0.10;;;;;;;20.44;100.00;99372.06;5115379;28;20191;-80
2023/07/09 04:11:35;;;;;;;0.00;0.00;;;;;;;20.51;100.00;99365.06;5106648;28;20191;-80
2023/07/09 04:14:04;;;;;;;0.10;0.10;;;;;;;20.73;100.00;99371.78;5110868;28;20256;-81
2023/07/09 04:16:35;;;;;;;0.10;0.10;;;;;;;20.84;100.00;99374.22;5115048;28;20245;-80
2023/07/09 04:19:04;;;;;;;0.10;0.10;;;;;;;20.83;100.00;99377.06;5113901;28;20301;-81
2023/07/09 04:21:32;;;;;;;0.10;0.10;;;;;;;20.91;100.00;99371.72;5115468;27;20250;-81
2023/07/09 04:24:01;;;;;;;0.10;0.10;;;;;;;20.96;100.00;99376.66;5105039;28;20191;-80
2023/07/09 04:26:29;;;;;;;0.10;0.10;;;;;;;20.90;100.00;99366.50;5109002;28;20208;-81
2023/07/09 04:28:58;;;;;;;0.10;0.10;;;;;;;20.67;100.00;99379.66;5115560;27;20187;-81
2023/07/09 04:31:27;;;;;;;0.10;0.10;;;;;;;21.10;100.00;99376.03;5110004;28;20309;-81
2023/07/09 04:33:57;;;;;;;0.10;0.10;;;;;;;20.96;100.00;99368.56;5109191;28;20264;-80
2023/07/09 04:36:27;;;;;;;0.10;0.10;;;;;;;20.80;100.00;99378.22;5112550;28;20199;-80
2023/07/09 04:38:56;;;;;;;0.10;0.10;;;;;;;20.77;100.00;99378.56;5105575;28;20198;-80
2023/07/09 04:41:25;;;;;;;0.10;0.10;;;;;;;21.00;100.00;99369.94;5105046;28;20685;-80
2023/07/09 04:43:54;;;;;;;0.10;0.10;;;;;;;20.92;100.00;99368.03;5107854;28;20205;-80
2023/07/09 04:46:22;;;;;;;0.10;0.10;;;;;;;21.00;100.00;99373.47;5114102;27;20195;-81
2023/07/09 04:48:51;;;;;;;0.10;0.10;;;;;;;21.01;100.00;99371.63;5108384;28;20202;-81
2023/07/09 04:51:21;;;;;;;0.10;0.10;;;;;;;21.28;100.00;99374.16;5113464;27;20233;-80
2023/07/09 04:53:51;;;;;;;0.10;0.10;;;;;;;21.25;100.00;99376.31;5112208;28;20666;-81
2023/07/09 04:56:19;;;;;;;0.10;0.10;;;;;;;21.42;100.00;99370.88;5109068;28;20195;-81
2023/07/09 04:58:49;;;;;;;0.10;0.10;;;;;;;21.41;100.00;99371.84;5112240;28;20191;-80
2023/07/09 05:01:18;;;;;;;0.10;0.10;;;;;;;21.55;100.00;99365.00;5068795;28;20220;-80
2023/07/09 05:03:47;;;;;;;0.10;0.10;;;;;;;21.76;100.00;99372.66;5068711;28;20200;-80
2023/07/09 05:06:16;;;;;;;0.10;0.10;;;;;;;21.68;100.00;99368.06;5067097;28;20283;-81
2023/07/09 05:08:48;;;;;;;0.10;0.10;;;;;;;21.86;100.00;99375.22;5065143;28;20196;-80
2023/07/09 05:11:16;;;;;;;0.10;0.10;;;;;;;21.81;100.00;99366.75;5062264;28;20655;-81
2023/07/09 05:13:45;;;;;;;0.10;0.10;;;;;;;21.76;100.00;99372.66;5064524;28;20209;-81
2023/07/09 05:16:14;;;;;;;0.10;0.10;;;;;;;21.83;100.00;99371.00;5063328;28;20291;-80
2023/07/09 05:18:42;;;;;;;0.10;0.10;;;;;;;21.95;100.00;99383.16;5068546;28;20212;-80
2023/07/09 05:21:11;;;;;;;0.10;0.10;;;;;;;22.00;100.00;99367.31;5065939;28;20196;-81
2023/07/09 05:23:40;;;;;;;0.10;0.10;;;;;;;22.05;100.00;99376.75;5062578;28;20192;-80
2023/07/09 05:26:10;;;;;;;0.10;0.10;;;;;;;21.98;100.00;99368.47;5088536;28;20658;-81
2023/07/09 05:28:39;;;;;;;0.10;0.10;;;;;;;22.06;100.00;99375.75;5108422;28;20191;-81
2023/07/09 05:31:09;;;;;;;0.10;0.10;;;;;;;22.16;100.00;99379.16;5107311;28;20215;-81
2023/07/09 05:33:37;;;;;;;0.10;0.10;;;;;;;22.26;100.00;99375.28;5076714;28;20199;-81
2023/07/09 05:36:10;;;;;;;0.10;0.10;;;;;;;22.34;100.00;99387.97;5125017;28;20214;-81
2023/07/09 05:38:39;;;;;;;0.10;0.10;;;;;;;22.48;100.00;99381.03;5133216;28;20233;-81
2023/07/09 05:41:09;;;;;;;0.08;0.08;;;;;;;22.57;100.00;99380.88;5114817;28;20236;-81
2023/07/09 05:43:37;;;;;;;0.10;0.10;;;;;;;22.75;100.00;99387.94;5108696;28;20225;-80
2023/07/09 05:46:07;;;;;;;0.10;0.10;;;;;;;22.87;100.00;99383.06;5107750;28;20228;-81
2023/07/09 05:48:35;;;;;;;0.10;0.10;;;;;;;22.91;100.00;99379.84;5108604;28;20282;-80
2023/07/09 05:51:03;;;;;;;0.10;0.10;;;;;;;23.09;100.00;99376.94;5073491;28;20202;-80
2023/07/09 05:53:33;;;;;;;0.10;0.10;;;;;;;22.90;100.00;99382.72;5107303;28;20202;-80
2023/07/09 05:56:01;;;;;;;0.10;0.10;;;;;;;23.05;100.00;99379.13;5047866;28;20220;-80
2023/07/09 05:58:32;;;;;;;0.10;0.10;;;;;;;22.92;100.00;99384.25;5046777;28;20264;-80
2023/07/09 06:01:02;;;;;;;0.00;0.00;;;;;;;23.13;100.00;99380.97;5045907;28;20288;-80
2023/07/09 06:03:31;;;;;;;0.10;0.10;;;;;;;23.20;100.00;99381.16;5048238;28;20225;-80
2023/07/09 06:06:00;;;;;;;0.10;0.10;;;;;;;23.37;100.00;99385.47;4951053;29;20208;-80
2023/07/09 06:08:29;;;;;;;0.10;0.10;;;;;;;23.41;100.00;99376.84;4947862;29;20232;-80
2023/07/09 06:10:58;;;;;;;0.00;0.00;;;;;;;23.47;100.00;99383.41;4945866;29;20215;-80
2023/07/09 06:13:30;;;;;;;0.10;0.10;;;;;;;23.63;100.00;99391.47;4958285;28;20204;-80
2023/07/09 06:16:02;;;;;;;0.10;0.10;;;;;;;23.71;100.00;99385.19;5025648;28;20244;-80
2023/07/09 06:18:31;;;;;;;0.10;0.10;;;;;;;23.82;100.00;99389.34;5019883;28;20700;-80
2023/07/09 06:21:01;;;;;;;0.10;0.10;;;;;;;23.83;100.00;99393.75;5026879;28;20244;-80
2023/07/09 06:23:32;;;;;;;0.10;0.10;;;;;;;23.85;100.00;99384.44;5020862;28;20213;-80
2023/07/09 06:26:01;;;;;;;0.08;0.08;;;;;;;24.13;100.00;99392.91;5027897;28;20228;-80
2023/07/09 06:28:32;;;;;;;0.08;0.08;;;;;;;24.12;100.00;99390.34;5024549;28;20221;-80
2023/07/09 06:31:02;;;;;;;0.10;0.10;;;;;;;24.25;100.00;99387.91;5075048;28;20234;-80
2023/07/09 06:33:31;;;;;;;0.10;0.10;;;;;;;24.31;100.00;99384.50;5102397;28;20193;-80
2023/07/09 06:36:02;;;;;;;0.00;0.00;;;;;;;24.49;100.00;99395.03;5110992;28;20202;-80
2023/07/09 06:38:33;;;;;;;0.10;0.10;;;;;;;24.61;100.00;99395.44;5109365;28;20191;-80
2023/07/09 06:41:02;;;;;;;0.10;0.10;;;;;;;24.63;100.00;99396.13;5101445;28;20269;-80
2023/07/09 06:43:31;;;;;;;0.10;0.10;;;;;;;24.75;100.00;99397.34;5106544;28;20278;-80
2023/07/09 06:46:02;;;;;;;0.10;0.10;;;;;;;24.90;100.00;99405.50;5046326;28;20335;-80
2023/07/09 06:48:31;;;;;;;0.10;0.10;;;;;;;25.05;100.00;99406.41;5047930;28;20201;-82
2023/07/09 06:51:00;;;;;;;0.10;0.10;;;;;;;25.14;99.37;99404.44;5043977;28;20197;-79
2023/07/09 06:53:30;;;;;;;0.00;0.00;;;;;;;25.29;98.44;99414.28;5048632;28;20193;-80
2023/07/09 06:56:00;;;;;;;0.00;0.00;;;;;;;25.13;100.00;99414.47;5054040;28;20320;-80
2023/07/09 06:58:33;;;;;;;0.10;0.10;;;;;;;24.98;98.41;99411.69;5049010;28;20201;-80
2023/07/09 07:01:06;;;;;;;0.10;0.10;;;;;;;25.30;96.78;99413.25;5051716;28;20197;-80
2023/07/09 07:03:34;;;;;;;0.00;0.00;;;;;;;25.10;95.37;99412.97;5064083;28;20305;-80
2023/07/09 07:06:05;;;;;;;0.00;0.00;;;;;;;25.13;95.47;99409.03;5077372;28;20195;-80
2023/07/09 07:08:34;;;;;;;0.10;0.10;;;;;;;25.54;93.00;99409.41;5114156;28;20198;-80
2023/07/09 07:11:05;;;;;;;0.00;0.00;;;;;;;25.72;89.90;99409.06;5114347;28;20206;-80
2023/07/09 07:13:36;;;;;;;0.10;0.10;;;;;;;25.87;90.22;99409.03;5116086;27;20201;-80
2023/07/09 07:16:10;;;;;;;0.10;0.10;;;;;;;26.13;86.24;99406.59;5116294;27;20223;-80
2023/07/09 07:18:42;;;;;;;0.00;0.00;;;;;;;26.25;82.31;99399.66;5116152;28;20202;-80
2023/07/09 07:21:11;;;;;;;0.00;0.00;;;;;;;26.35;80.84;99402.06;5116222;28;20197;-80
2023/07/09 07:23:39;;;;;;;0.00;0.00;;;;;;;26.41;80.39;99400.44;5074528;28;20235;-80
2023/07/09 07:26:08;;;;;;;0.10;0.10;;;;;;;26.46;79.68;99403.44;5117800;27;20232;-80
2023/07/09 07:28:37;;;;;;;0.00;0.00;;;;;;;26.55;80.17;99398.72;5116081;28;20233;-80
2023/07/09 07:31:10;;;;;;;0.10;0.10;;;;;;;26.58;80.09;99399.16;5118039;27;20237;-80
2023/07/09 07:33:41;;;;;;;0.05;0.05;;;;;;;26.79;79.73;99395.56;5112942;28;20199;-80
2023/07/09 07:36:10;;;;;;;0.00;0.00;;;;;;;26.84;77.15;99397.72;5124542;28;20187;-80
2023/07/09 07:38:41;;;;;;;0.03;0.03;;;;;;;26.61;78.74;99393.31;5113419;28;20202;-79
2023/07/09 07:41:10;;;;;;;0.10;0.10;;;;;;;26.84;77.53;99389.56;5112135;28;20278;-80
2023/07/09 07:43:40;;;;;;;0.00;0.00;;;;;;;26.82;79.30;99396.00;5114468;27;20271;-80
2023/07/09 07:46:10;;;;;;;0.05;0.05;;;;;;;27.08;80.06;99384.53;5115883;28;20187;-80
2023/07/09 07:48:39;;;;;;;0.00;0.00;;;;;;;27.23;78.84;99389.03;5108327;28;20199;-80
2023/07/09 07:51:07;;;;;;;0.00;0.00;;;;;;;27.35;78.14;99392.84;5111209;28;20223;-81
2023/07/09 07:53:36;;;;;;;0.00;0.00;;;;;;;27.54;77.06;99380.38;5114238;28;20198;-80
2023/07/09 07:56:10;;;;;;;0.00;0.00;;;;;;;27.58;76.36;99382.50;5115761;28;20194;-80
2023/07/09 07:58:39;;;;;;;0.10;0.10;;;;;;;27.82;74.21;99380.34;5112821;28;20628;-80
2023/07/09 08:01:09;;;;;;;0.00;0.00;;;;;;;27.85;72.55;99374.47;5105553;28;20315;-80
2023/07/09 08:03:37;;;;;;;0.03;0.03;;;;;;;28.10;71.59;99378.31;5102994;28;20298;-80
2023/07/09 08:06:06;;;;;;;0.10;0.10;;;;;;;28.27;70.34;99378.75;5114871;28;20175;-81
2023/07/09 08:08:37;;;;;;;0.10;0.10;;;;;;;28.25;69.73;99375.41;5113397;27;20195;-80
2023/07/09 08:11:07;;;;;;;0.00;0.00;;;;;;;28.44;68.60;99381.97;5106209;28;20187;-80
2023/07/09 08:13:37;;;;;;;0.00;0.00;;;;;;;28.48;68.19;99375.91;5114973;28;20210;-80
2023/07/09 08:16:06;;;;;;;0.00;0.00;;;;;;;28.75;67.41;99390.34;5109665;28;20252;-80
2023/07/09 08:18:37;;;;;;;0.00;0.00;;;;;;;28.75;64.54;99393.09;5113447;28;20205;-80
2023/07/09 08:21:09;;;;;;;0.00;0.00;;;;;;;28.74;63.39;99380.50;5111616;28;20185;-80
2023/07/09 08:23:40;;;;;;;0.00;0.00;;;;;;;28.84;63.13;99384.69;5113517;28;20253;-81
2023/07/09 08:26:09;;;;;;;0.00;0.00;;;;;;;29.14;58.54;99375.03;5107529;28;20191;-80
2023/07/09 08:28:38;;;;;;;0.00;0.00;;;;;;;28.83;55.38;99381.13;5031326;28;20205;-80
2023/07/09 08:31:07;;;;;;;0.00;0.00;;;;;;;28.72;57.82;99381.78;5029146;28;20333;-80
2023/07/09 08:33:41;;;;;;;0.00;0.00;;;;;;;28.49;57.91;99387.66;5026567;28;20269;-80
2023/07/09 08:36:10;;;;;;;0.10;0.10;;;;;;;28.66;58.46;99388.91;5030850;28;20194;-81
2023/07/09 08:38:38;;;;;;;0.10;0.10;;;;;;;29.11;55.55;99380.94;5027414;28;20356;-80
2023/07/09 08:41:21;;;;;;;0.00;0.00;;;;;;;29.34;52.18;99384.03;5029499;28;20190;-81
2023/07/09 08:43:59;;;;;;;0.00;0.00;;;;;;;29.48;52.10;99386.72;5028874;28;20229;-80
2023/07/09 08:46:34;;;;;;;0.00;0.00;;;;;;;29.67;52.33;99374.91;5052925;28;20198;-80
2023/07/09 08:49:14;;;;;;;0.00;0.00;;;;;;;29.52;53.03;99379.78;5114547;28;20220;-80
2023/07/09 08:51:44;;;;;;;0.00;0.00;;;;;;;29.25;54.63;99374.41;5113054;28;20198;-80
2023/07/09 08:54:23;;;;;;;0.00;0.00;;;;;;;29.54;51.64;99381.28;5110351;28;20706;-80
2023/07/09 08:56:58;;;;;;;0.00;0.00;;;;;;;29.52;50.44;99369.72;5109781;28;20211;-80
2023/07/09 08:59:27;;;;;;;0.00;0.00;;;;;;;29.71;52.17;99373.41;5110265;28;20199;-80
2023/07/09 09:02:00;;;;;;;0.08;0.08;;;;;;;29.77;52.05;99371.72;5108583;28;20187;-80
2023/07/09 09:04:32;;;;;;;0.00;0.00;;;;;;;30.14;49.98;99372.81;5111415;28;20220;-81
2023/07/09 09:07:25;;;;;;;0.00;0.00;;;;;;;30.43;49.15;99377.66;5111685;28;20715;-80
2023/07/09 09:10:00;;;;;;;0.10;0.10;;;;;;;30.43;51.48;99371.38;5112719;28;20203;-80
2023/07/09 09:12:37;;;;;;;0.00;0.00;;;;;;;30.53;47.10;99374.44;5117080;27;20460;-81
2023/07/09 09:15:14;;;;;;;0.00;0.00;;;;;;;30.82;46.26;99364.78;5109958;28;20210;-82
2023/07/09 09:17:43;;;;;;;0.00;0.00;;;;;;;30.88;48.73;99371.22;5113128;28;20618;-81
2023/07/09 09:20:21;;;;;;;0.00;0.00;;;;;;;30.74;49.73;99368.63;5110157;28;20228;-81
2023/07/09 09:22:55;;;;;;;0.00;0.00;;;;;;;31.11;47.83;99357.75;5114546;28;20213;-82
2023/07/09 09:25:29;;;;;;;0.00;0.00;;;;;;;31.19;47.99;99365.66;5115239;28;20223;-80
2023/07/09 09:27:57;;;;;;;0.00;0.00;;;;;;;30.98;48.97;99363.34;5112609;28;20417;-81
2023/07/09 09:30:26;;;;;;;0.00;0.00;;;;;;;31.11;49.13;99356.91;5111984;28;20249;-81
2023/07/09 09:32:58;;;;;;;0.00;0.00;;;;;;;31.44;47.15;99353.81;5114768;28;20200;-81
2023/07/09 09:35:32;;;;;;;0.00;0.00;;;;;;;31.03;47.70;99360.78;5111135;28;20199;-82
2023/07/09 09:38:01;;;;;;;0.00;0.00;;;;;;;31.04;48.89;99348.75;5109318;28;20286;-81
2023/07/09 09:40:34;;;;;;;0.00;0.00;;;;;;;31.30;47.25;99359.47;5107148;28;20195;-81
2023/07/09 09:43:13;;;;;;;0.00;0.00;;;;;;;31.53;44.90;99360.66;5113467;28;20191;-81
2023/07/09 09:45:43;;;;;;;0.00;0.00;;;;;;;31.85;45.36;99355.88;5113767;28;20218;-81
2023/07/09 09:48:16;;;;;;;0.00;0.00;;;;;;;31.72;46.43;99358.75;5111412;28;20183;-82
2023/07/09 09:50:49;;;;;;;0.00;0.00;;;;;;;31.45;47.47;99347.28;5111118;28;20236;-81
2023/07/09 09:53:23;;;;;;;0.00;0.00;;;;;;;31.32;47.53;99351.03;5126246;28;20219;-80
2023/07/09 09:55:54;;;;;;;0.00;0.00;;;;;;;31.81;46.13;99344.53;5127384;28;20219;-80
2023/07/09 09:58:28;;;;;;;0.00;0.00;;;;;;;31.85;45.26;99358.63;5116459;28;20208;-80
2023/07/09 10:01:06;;;;;;;0.00;0.00;;;;;;;32.08;43.82;99355.97;5119130;28;20222;-80
2023/07/09 10:03:39;;;;;;;0.00;0.00;;;;;;;32.41;43.03;99355.47;5115981;28;20249;-79
2023/07/09 10:06:16;;;;;;;0.00;0.00;;;;;;;32.24;44.39;99354.47;5110327;28;20219;-79
2023/07/09 10:08:57;;;;;;;0.00;0.00;;;;;;;32.86;42.08;99356.91;5113335;28;20206;-80
2023/07/09 10:11:37;;;;;;;0.00;0.00;;;;;;;33.05;41.15;99361.19;5113999;28;20449;-80
2023/07/09 10:14:28;;;;;;;0.00;0.00;;;;;;;32.89;42.24;99357.25;5113666;27;20190;-80
2023/07/09 10:17:02;;;;;;;0.00;0.00;;;;;;;32.84;41.45;99361.78;5113068;28;20183;-80
2023/07/09 10:19:41;;;;;;;0.00;0.00;;;;;;;32.76;42.84;99357.44;5112803;28;20213;-79
2023/07/09 10:22:24;;;;;;;0.00;0.00;;;;;;;33.40;41.44;99350.22;5104983;28;20290;-79
2023/07/09 10:25:02;;;;;;;0.00;0.00;;;;;;;33.49;40.88;99353.38;5108958;28;20218;-79
2023/07/09 10:27:40;;;;;;;0.00;0.00;;;;;;;33.48;40.79;99355.28;5112342;28;20215;-80
2023/07/09 10:30:30;;;;;;;0.00;0.00;;;;;;;33.58;40.71;99360.16;5116008;28;20237;-80
2023/07/09 10:33:09;;;;;;;0.00;0.00;;;;;;;33.30;41.76;99358.19;5117322;28;20218;-80
2023/07/09 10:35:44;;;;;;;0.00;0.00;;;;;;;33.98;40.18;99353.88;5117016;28;20306;-80
2023/07/09 10:38:27;;;;;;;0.00;0.00;;;;;;;33.94;40.12;99355.44;5109309;28;20203;-80
2023/07/09 10:40:59;;;;;;;0.00;0.00;;;;;;;34.08;40.47;99345.81;5119359;27;20255;-80
2023/07/09 10:43:56;;;;;;;0.00;0.00;;;;;;;34.24;39.34;99338.66;5120993;28;20685;-81
2023/07/09 10:46:34;;;;;;;0.00;0.00;;;;;;;34.39;39.06;99337.06;5118648;28;20210;-81
2023/07/09 10:49:12;;;;;;;0.00;0.00;;;;;;;34.50;39.76;99329.81;5085808;28;20202;-81
2023/07/09 10:51:52;;;;;;;0.00;0.00;;;;;;;34.69;38.79;99331.22;5115947;28;20202;-81
2023/07/09 10:54:31;;;;;;;0.00;0.00;;;;;;;34.19;40.99;99328.41;5125664;28;20277;-81
2023/07/09 10:57:08;;;;;;;0.00;0.00;;;;;;;33.96;40.85;99325.75;5120777;28;20256;-82
2023/07/09 10:59:40;;;;;;;0.00;0.00;;;;;;;34.03;40.63;99315.47;5121023;28;20222;-81
2023/07/09 11:02:21;;;;;;;0.00;0.00;;;;;;;34.73;39.57;99318.59;5112549;28;20203;-81
2023/07/09 11:04:58;;;;;;;0.00;0.00;;;;;;;34.93;38.25;99315.34;5119008;28;20191;-82
2023/07/09 11:07:33;;;;;;;0.00;0.00;;;;;;;34.27;39.98;99311.50;5118219;28;20754;-80
2023/07/09 11:10:09;;;;;;;0.00;0.00;;;;;;;35.02;38.40;99306.66;5024105;28;20220;-81
2023/07/09 11:12:44;;;;;;;0.00;0.00;;;;;;;35.27;37.47;99312.53;5001599;28;20378;-81
2023/07/09 11:15:18;;;;;;;0.00;0.00;;;;;;;35.53;36.64;99302.69;5044057;28;20197;-81
2023/07/09 11:17:50;;;;;;;0.00;0.00;;;;;;;36.05;35.65;99311.28;5051843;28;20201;-80
2023/07/09 11:20:26;;;;;;;0.00;0.00;;;;;;;35.61;35.91;99312.41;5052492;28;20258;-81
2023/07/09 11:23:01;;;;;;;0.00;0.00;;;;;;;36.38;34.71;99307.44;5050784;28;20215;-80
2023/07/09 11:25:42;;;;;;;0.00;0.00;;;;;;;36.48;34.94;99315.00;5048231;28;20224;-81
2023/07/09 11:28:13;;;;;;;0.00;0.00;;;;;;;36.16;35.33;99306.69;5054209;28;20193;-81
2023/07/09 11:30:49;;;;;;;0.00;0.00;;;;;;;36.45;34.49;99298.97;5051201;28;20225;-81
2023/07/09 11:33:20;;;;;;;0.00;0.00;;;;;;;36.39;34.72;99305.56;5050565;28;20224;-81
2023/07/09 11:36:10;;;;;;;0.00;0.00;;;;;;;36.34;35.09;99305.47;5051938;28;20698;-81
2023/07/09 11:38:43;;;;;;;0.00;0.00;;;;;;;36.39;34.19;99300.88;5048197;28;20343;-82
2023/07/09 11:41:35;;;;;;;0.00;0.00;;;;;;;36.87;33.45;99288.00;5081869;28;20218;-81
2023/07/09 11:44:11;;;;;;;0.00;0.00;;;;;;;37.01;33.35;99288.31;5115717;28;20206;-81
2023/07/09 11:47:11;;;;;;;0.00;0.00;;;;;;;37.45;32.22;99285.25;5114785;28;20293;-81
2023/07/09 11:49:48;;;;;;;0.00;0.00;;;;;;;37.18;33.10;99272.41;5112272;28;20254;-81
2023/07/09 11:52:21;;;;;;;0.00;0.00;;;;;;;37.11;34.02;99279.25;5113964;28;20206;-81